Park Rapids, Minnesota
Current Conditions -  °F | °C
As of 4:53 AM on Tuesday 21 Oct 2014 (Local Time) from KPKD Reporting Station
Clear Clear  
Wind Chill: 30°   Ceiling: Unl
Heat Index: 37°   Visibility: 10mi
Dew Point: 36°   Wind: 9mph
Humidity: 96%   Direction: 120°ESE
Pressure: 30.12"   Gusts: NA
Location:  46.92°N, 95.06°W
Report Text: KPKD 210953Z AUTO 12008KT 10SM CLR 03/02 A3012 RMK AO2 SLP209 T00280022 TSNO
Loading
Personal Weather Stations






























Interactive Weather Map
Tropical Storm Tracking
New forecast layout! Learn more

10-Day Weather Forecast

Advertisements
Track Severe Weather on mobile